createdAt,value
2023-01-02T00:00:36.610Z,25.50
2023-01-02T00:03:14.893Z,25.60
2023-01-02T00:05:50.316Z,25.50
2023-01-02T00:08:26.027Z,25.60
2023-01-02T00:11:02.591Z,25.60
2023-01-02T00:13:38.660Z,25.60
2023-01-02T00:16:16.153Z,25.60
2023-01-02T00:18:53.964Z,25.60
2023-01-02T00:21:30.028Z,25.60
2023-01-02T00:24:06.184Z,25.60
2023-01-02T00:26:42.453Z,25.60
2023-01-02T00:29:21.895Z,25.60
2023-01-02T00:31:57.893Z,25.60
2023-01-02T00:34:36.042Z,25.60
2023-01-02T00:37:11.463Z,25.60
2023-01-02T00:39:47.080Z,25.50
2023-01-02T00:42:23.716Z,25.60
2023-01-02T00:44:59.840Z,25.70
2023-01-02T00:47:38.050Z,25.60
2023-01-02T00:50:16.111Z,25.60
2023-01-02T00:52:52.025Z,25.70
2023-01-02T00:55:28.343Z,25.80
2023-01-02T00:58:04.971Z,25.80
2023-01-02T01:00:41.532Z,25.80
2023-01-02T01:03:17.352Z,25.70
2023-01-02T01:05:55.286Z,25.80
2023-01-02T01:08:30.707Z,25.70
2023-01-02T01:11:11.136Z,25.70
2023-01-02T01:13:47.930Z,25.70
2023-01-02T01:16:24.968Z,25.70
2023-01-02T01:19:01.667Z,25.80
2023-01-02T01:21:40.287Z,25.80
2023-01-02T01:24:16.449Z,25.80
2023-01-02T01:26:52.562Z,25.80
2023-01-02T01:29:28.720Z,25.90
2023-01-02T01:32:07.902Z,26.00
2023-01-02T01:34:43.825Z,26.10
2023-01-02T01:37:21.948Z,26.10
2023-01-02T01:39:57.546Z,26.10
2023-01-02T01:42:37.941Z,25.90
2023-01-02T01:45:20.499Z,26.10
2023-01-02T01:48:00.056Z,26.00
2023-01-02T01:50:38.804Z,26.00
2023-01-02T01:53:24.628Z,26.00
2023-01-02T01:56:05.119Z,26.00
2023-01-02T01:58:45.316Z,25.90
2023-01-02T02:01:23.028Z,25.90
2023-01-02T02:03:58.738Z,26.00
2023-01-02T02:44:46.929Z,25.70
2023-01-02T02:47:33.575Z,25.70
2023-01-02T02:55:31.644Z,25.90
2023-01-02T02:58:07.433Z,25.90
2023-01-02T03:03:26.153Z,25.80
2023-01-02T03:06:19.516Z,25.70
2023-01-02T03:09:01.700Z,25.70
2023-01-02T03:11:46.938Z,25.50
2023-01-02T03:14:33.722Z,25.70
2023-01-02T03:19:54.752Z,25.70
2023-01-02T03:22:36.682Z,25.70
2023-01-02T03:25:17.022Z,25.40
2023-01-02T03:30:33.502Z,25.30
2023-01-02T03:33:13.504Z,25.40
2023-01-02T03:35:54.741Z,25.40
2023-01-02T03:38:33.143Z,25.50
2023-01-02T03:43:56.588Z,25.30
2023-01-02T03:49:19.494Z,25.20
2023-01-02T04:05:16.570Z,25.40
2023-01-02T04:08:00.898Z,25.40
2023-01-02T04:10:39.532Z,25.40
2023-01-02T04:13:20.710Z,25.40
2023-01-02T04:15:58.509Z,25.40
2023-01-02T04:24:04.627Z,25.80
2023-01-02T04:26:45.922Z,25.80
2023-01-02T04:42:52.740Z,25.40
2023-01-02T04:56:00.404Z,25.60
2023-01-02T04:58:37.158Z,25.60
2023-01-02T05:01:15.484Z,25.60
2023-01-02T05:03:53.273Z,25.50
2023-01-02T05:06:28.883Z,25.40
2023-01-02T05:09:06.163Z,25.30
2023-01-02T05:11:43.946Z,25.20
2023-01-02T05:14:19.547Z,25.20
2023-01-02T05:19:33.217Z,25.10
2023-01-02T05:22:24.606Z,25.20
2023-01-02T05:25:00.604Z,25.30
2023-01-02T05:27:38.360Z,25.20
2023-01-02T05:30:15.602Z,25.10
2023-01-02T05:32:51.115Z,25.10
2023-01-02T05:35:32.126Z,25.10
2023-01-02T05:38:08.985Z,25.00
2023-01-02T05:59:12.896Z,24.90
2023-01-02T06:09:37.239Z,24.80
2023-01-02T06:12:14.591Z,24.80
2023-01-02T06:14:53.305Z,24.80
2023-01-02T06:17:28.759Z,24.70
2023-01-02T06:20:04.769Z,24.60
2023-01-02T06:22:41.404Z,24.60
2023-01-02T06:25:17.159Z,24.60
2023-01-02T06:27:53.485Z,24.50
2023-01-02T06:30:31.097Z,24.60
2023-01-02T06:35:43.641Z,24.50
2023-01-02T07:01:47.463Z,24.40
2023-01-02T07:09:35.148Z,24.40
2023-01-02T07:27:48.351Z,24.30
2023-01-02T07:30:24.751Z,24.40
2023-01-02T07:33:02.177Z,24.40
2023-01-02T07:38:16.435Z,24.20
2023-01-02T07:49:17.408Z,24.20
2023-01-02T08:15:18.649Z,24.00
2023-01-02T08:17:55.808Z,24.00
2023-01-02T08:28:34.643Z,23.80
2023-01-02T08:31:14.852Z,23.70
2023-01-02T08:33:51.553Z,23.70
2023-01-02T08:36:29.245Z,23.60
2023-01-02T08:39:06.203Z,23.60
2023-01-02T08:41:42.710Z,23.60
2023-01-02T08:44:18.471Z,23.60
2023-01-02T08:46:54.074Z,23.60
2023-01-02T08:49:31.277Z,23.60
2023-01-02T08:52:08.922Z,23.60
2023-01-02T08:54:44.577Z,23.60
2023-01-02T08:57:20.720Z,23.60
2023-01-02T08:59:57.333Z,23.50
2023-01-02T09:02:33.252Z,23.60
2023-01-02T09:05:10.311Z,23.50
2023-01-02T09:07:47.875Z,23.40
2023-01-02T09:10:24.563Z,23.40
2023-01-02T09:13:01.096Z,23.40
2023-01-02T09:15:36.631Z,23.50
2023-01-02T09:18:12.457Z,23.50
2023-01-02T09:20:50.060Z,23.50
2023-01-02T09:23:27.596Z,23.60
2023-01-02T09:26:05.721Z,23.50
2023-01-02T09:28:42.404Z,23.50
2023-01-02T09:31:20.421Z,23.50
2023-01-02T09:33:57.390Z,23.50
2023-01-02T09:36:34.147Z,23.50
2023-01-02T09:39:12.020Z,23.50
2023-01-02T09:41:49.435Z,23.50
2023-01-02T09:44:29.914Z,23.40
2023-01-02T09:47:09.067Z,23.40
2023-01-02T09:49:50.939Z,23.40
2023-01-02T09:52:32.514Z,23.30
2023-01-02T09:55:18.461Z,23.30
2023-01-02T09:58:01.979Z,23.40
2023-01-02T10:00:40.536Z,23.20
2023-01-02T10:03:23.069Z,23.10
2023-01-02T10:06:20.931Z,23.30
2023-01-02T10:09:09.550Z,23.20
2023-01-02T10:11:59.865Z,23.10
2023-01-02T10:14:47.266Z,23.10
2023-01-02T10:17:23.901Z,23.10
2023-01-02T10:20:03.944Z,23.10
2023-01-02T10:22:47.049Z,23.10
2023-01-02T10:25:28.525Z,23.10
2023-01-02T10:28:15.836Z,23.20
2023-01-02T10:30:56.970Z,23.20
2023-01-02T10:33:40.985Z,23.20
2023-01-02T10:36:28.521Z,23.20
2023-01-02T10:39:05.429Z,23.20
2023-01-02T10:41:41.970Z,23.20
2023-01-02T10:44:30.223Z,23.30
2023-01-02T10:47:18.964Z,23.20
2023-01-02T10:49:56.900Z,23.20
2023-01-02T10:52:36.756Z,23.10
2023-01-02T10:55:12.925Z,23.10
2023-01-02T10:57:52.838Z,23.10
2023-01-02T11:00:35.317Z,23.10
2023-01-02T11:03:19.463Z,23.20
2023-01-02T11:06:02.097Z,23.20
2023-01-02T11:08:47.148Z,23.30
2023-01-02T11:11:23.809Z,23.30
2023-01-02T11:14:00.691Z,23.40
2023-01-02T11:16:41.839Z,23.30
2023-01-02T11:19:29.621Z,23.30
2023-01-02T11:22:06.597Z,23.30
2023-01-02T11:25:00.657Z,23.30
2023-01-02T11:27:39.732Z,23.30
2023-01-02T11:30:35.414Z,23.30
2023-01-02T11:33:25.494Z,23.40
2023-01-02T11:36:02.568Z,23.30
2023-01-02T11:38:47.788Z,23.40
2023-01-02T11:41:47.240Z,23.30
2023-01-02T11:44:28.540Z,23.40
2023-01-02T11:47:04.857Z,23.40
2023-01-02T11:49:46.795Z,23.50
2023-01-02T11:52:26.634Z,23.40
2023-01-02T11:55:05.047Z,23.40
2023-01-02T11:57:50.276Z,23.40
2023-01-02T12:00:39.205Z,23.40
2023-01-02T12:03:22.716Z,23.40
2023-01-02T12:08:56.779Z,23.40
2023-01-02T12:11:54.818Z,23.40
2023-01-02T12:20:08.608Z,23.30
2023-01-02T12:23:20.312Z,23.30
2023-01-02T12:26:09.571Z,23.30
2023-01-02T12:29:13.543Z,23.30
2023-01-02T12:32:43.119Z,23.30
2023-01-02T12:35:58.924Z,23.30
2023-01-02T12:38:48.199Z,23.20
2023-01-02T12:41:32.189Z,23.20
2023-01-02T12:44:27.252Z,23.30
2023-01-02T12:47:30.799Z,23.20
2023-01-02T12:50:49.253Z,23.30
2023-01-02T12:53:44.352Z,23.30
2023-01-02T12:56:23.139Z,23.20
2023-01-02T12:59:23.938Z,23.20
2023-01-02T21:24:33.592Z,24.00
2023-01-02T21:27:13.144Z,24.10
2023-01-02T21:29:48.989Z,24.20
2023-01-02T21:32:25.780Z,24.20
2023-01-02T21:35:01.118Z,24.20
2023-01-02T21:37:37.716Z,24.40
2023-01-02T21:40:16.773Z,24.40
2023-01-02T21:42:53.457Z,24.50
2023-01-02T21:45:29.095Z,24.50
2023-01-02T21:48:05.935Z,24.60
2023-01-02T21:50:41.760Z,24.50
2023-01-02T21:53:18.552Z,24.50
2023-01-02T21:55:56.003Z,24.40
2023-01-02T21:58:32.097Z,24.40
2023-01-02T22:01:07.491Z,24.50
2023-01-02T22:03:44.218Z,24.50
2023-01-02T22:06:20.099Z,24.50
2023-01-02T22:08:56.440Z,24.80
2023-01-02T22:11:49.975Z,24.80
2023-01-02T22:14:28.493Z,24.80
2023-01-02T22:17:05.028Z,24.90
2023-01-02T22:19:42.406Z,24.90
2023-01-02T22:22:17.798Z,24.80
2023-01-02T22:24:55.146Z,24.70
2023-01-02T22:27:32.681Z,24.80
2023-01-02T22:30:33.142Z,24.80
2023-01-02T22:33:04.948Z,24.70
2023-01-02T22:35:42.226Z,24.80
2023-01-02T22:38:18.085Z,24.80
2023-01-02T22:40:54.742Z,24.90
2023-01-02T22:43:34.725Z,25.00
2023-01-02T22:46:15.106Z,25.00
2023-01-02T22:48:50.591Z,25.00
2023-01-02T22:52:04.990Z,25.10
2023-01-02T22:54:25.711Z,25.20
2023-01-02T22:57:01.898Z,25.10
2023-01-02T22:59:39.487Z,25.20
2023-01-02T23:02:19.757Z,25.30
2023-01-02T23:04:55.325Z,25.20
2023-01-02T23:07:31.792Z,25.20
2023-01-02T23:10:07.391Z,25.20
2023-01-02T23:12:43.610Z,25.20
2023-01-02T23:15:21.474Z,25.10
2023-01-02T23:18:13.046Z,25.10
2023-01-02T23:20:48.523Z,25.10
2023-01-02T23:23:25.092Z,25.20
2023-01-02T23:26:04.610Z,25.30
2023-01-02T23:29:05.734Z,25.30
2023-01-02T23:31:38.343Z,25.40
2023-01-02T23:34:15.520Z,25.30
2023-01-02T23:36:51.627Z,25.30
2023-01-02T23:39:29.266Z,25.30
2023-01-02T23:42:04.856Z,25.40
2023-01-02T23:44:41.615Z,25.40
2023-01-02T23:47:19.533Z,25.40
2023-01-02T23:49:55.164Z,25.40
2023-01-02T23:52:30.583Z,25.30
2023-01-02T23:55:07.413Z,25.30
2023-01-02T23:57:43.224Z,25.30
